Dessau, Texas
Current Conditions -  °F | °C
As of 7:55 PM on Monday 24 Nov 2014 (Local Time) from KEDC Reporting Station
Haze Haze  
Wind Chill: 10°   Ceiling: Unl
Heat Index: 10°   Visibility: 1.7mi
Dew Point:   Wind: 5mph
Humidity: 50%   Direction: 360°N
Pressure: 30.13"   Gusts: NA
Location:  30.3795°N, 97.676°W
Report Text: KEDC 250155Z AUTO 36004KT 1 3/4SM HZ CLR 10/00 A3013 RMK AO2
Loading
Personal Weather Stations






























Interactive Weather Map New forecast layout! Learn more

10-Day Weather Forecast

Advertisements
Track Severe Weather on mobile